Hauptseite
METAR-TAF:

METAR-TAF

Flughäfen :

Brookhaven Airport

Shirley, New York, Vereinigte Staaten

Breite: 40-49-18N, Länge: 072-52-08W, Höhe: 25 m

Beobachtung

Neuester Wetterbericht von vor 28 Minuten, um 15:56 UTC
Wind 11 kt aus Süd/Südwest, Böen bis zu 15 kt
Temperatur 23°C
Luftfeuchtigkeit 61%
Luftdruck 1003 hPa
Sichtweite: 16.1 km
Himmel klar

METAR: KHWV 031556Z AUTO 21011G15KT 10SM CLR 23/15 A2962 RMK AO2 SLP029 T02330150

Zeit: 12:24 (16:24 UTC)


TAF: fehlend

Wetterbeobachtungen und Prognosen von mehr als 4000 Flughäfen (METAR und TAF Bericht).

Die verfügbaren Stationen werden durch gelbe und rote Markierungen auf der Karte dargestellt.

Führen Sie die Maus auf sie, um den Namen der Station zu sehen.

Darauf klicken, um die Beobachtung von Wetterbeobachtungen und Prognosen zu sehen.

Um die Karte zu ändern : klicken Sie auf den grünen Tasten mit einem schwarzen Kreuz Zum Vergrößern, auf den grünen Button mit einem Gedankenstrich zu verkleinern, oder auf die grünen Pfeile für benachbarte Karten.


METAR-TAF: